createdAt,value
2022-11-12T00:16:36.726Z,5.04
2022-11-12T00:36:36.779Z,5.35
2022-11-12T00:56:43.746Z,5.1
2022-11-12T01:16:43.651Z,4.85
2022-11-12T01:36:43.579Z,4.51
2022-11-12T02:16:36.509Z,4.1
2022-11-12T02:36:36.514Z,3.84
2022-11-12T02:56:36.450Z,3.98
2022-11-12T03:16:36.431Z,3.76
2022-11-12T03:36:50.427Z,3.17
2022-11-12T03:56:43.380Z,2.93
2022-11-12T04:16:36.353Z,2.62
2022-11-12T04:56:36.291Z,2.44
2022-11-12T05:16:36.272Z,2.26
2022-11-12T05:36:50.263Z,1.88
2022-11-12T05:56:36.220Z,1.7
2022-11-12T06:36:43.253Z,1.39
2022-11-12T06:56:36.126Z,2.04
2022-11-12T07:16:43.100Z,5.62
2022-11-12T07:36:36.139Z,3.71
2022-11-12T07:56:36.045Z,5.87
2022-11-12T08:16:36.057Z,9.19
2022-11-12T08:36:35.993Z,7.26
2022-11-12T09:16:42.914Z,9.02
2022-11-12T09:36:39.610Z,11.14
2022-11-12T09:56:42.841Z,13.65
2022-11-12T10:16:35.762Z,13.45
2022-11-12T10:36:35.763Z,13.8
2022-11-12T10:56:54.923Z,13.11
2022-11-12T11:16:35.734Z,13.02
2022-11-12T11:36:35.574Z,12.73
2022-11-12T11:56:42.567Z,13.19
2022-11-12T12:16:42.502Z,13.33
2022-11-12T12:36:42.460Z,13.77
2022-11-12T12:56:35.420Z,13.58
2022-11-12T13:16:35.372Z,13.56
2022-11-12T13:36:35.412Z,13.76
2022-11-12T13:56:35.322Z,13.57
2022-11-12T14:16:35.234Z,13.09
2022-11-12T14:36:42.209Z,12.12
2022-11-12T15:16:35.128Z,9.41
2022-11-12T15:56:35.045Z,7.41
2022-11-12T16:36:34.949Z,6.32
2022-11-12T16:56:42.019Z,5.99
2022-11-12T17:16:34.883Z,5.5
2022-11-12T17:56:37.034Z,4.56
2022-11-12T18:16:41.855Z,4.55
2022-11-12T18:56:34.777Z,3.77
2022-11-12T19:16:34.698Z,3.41
2022-11-12T19:36:56.586Z,3.35
2022-11-12T19:56:48.768Z,3.18
2022-11-12T20:36:41.620Z,3.23
2022-11-12T20:56:41.599Z,2.96
2022-11-12T21:36:34.519Z,2.52
2022-11-12T21:56:34.472Z,2.49
2022-11-12T22:16:48.711Z,2.48
2022-11-12T22:36:41.445Z,2.53
2022-11-12T23:16:41.366Z,2.95
2022-11-12T23:36:41.351Z,3.33
2022-11-12T23:56:34.305Z,3.74
